createdAt,value
2019-02-22T00:00:59.717Z,22.70
2019-02-22T00:03:47.349Z,23.10
2019-02-22T00:06:35.026Z,23.23
2019-02-22T00:09:23.017Z,23.93
2019-02-22T00:12:11.035Z,22.77
2019-02-22T00:14:58.826Z,21.53
2019-02-22T00:17:46.729Z,21.67
2019-02-22T00:20:34.685Z,22.70
2019-02-22T00:23:22.701Z,21.70
2019-02-22T00:26:11.232Z,22.10
2019-02-22T00:28:59.421Z,21.63
2019-02-22T00:31:47.269Z,20.37
2019-02-22T00:34:35.276Z,21.53
2019-02-22T00:37:22.965Z,18.77
2019-02-22T00:40:10.869Z,19.73
2019-02-22T00:42:59.765Z,19.97
2019-02-22T00:45:47.605Z,20.37
2019-02-22T00:48:35.410Z,19.60
2019-02-22T00:51:23.333Z,20.53
2019-02-22T00:54:10.945Z,20.43
2019-02-22T00:56:58.974Z,18.70
2019-02-22T00:59:46.581Z,17.80
2019-02-22T01:02:34.505Z,18.57
2019-02-22T01:05:22.393Z,19.07
2019-02-22T01:08:10.449Z,17.70
2019-02-22T01:10:58.297Z,19.83
2019-02-22T01:13:46.106Z,18.87
2019-02-22T01:16:33.882Z,18.67
2019-02-22T01:19:21.698Z,18.30
2019-02-22T01:22:09.413Z,17.47
2019-02-22T01:24:57.345Z,18.10
2019-02-22T01:27:45.105Z,19.13
2019-02-22T01:30:33.159Z,18.03
2019-02-22T01:33:21.062Z,18.13
2019-02-22T01:36:09.002Z,18.27
2019-02-22T01:38:56.633Z,18.83
2019-02-22T01:41:44.482Z,17.27
2019-02-22T01:44:32.128Z,18.53
2019-02-22T01:47:20.087Z,18.57
2019-02-22T01:50:08.105Z,18.27
2019-02-22T01:52:56.171Z,18.03
2019-02-22T01:55:44.010Z,18.60
2019-02-22T01:58:31.910Z,18.30
2019-02-22T02:01:19.669Z,19.87
2019-02-22T02:04:07.329Z,19.00
2019-02-22T02:06:55.303Z,19.47
2019-02-22T02:09:43.014Z,19.60
2019-02-22T02:12:31.006Z,19.70
2019-02-22T02:15:19.028Z,19.13
2019-02-22T02:18:06.494Z,19.90
2019-02-22T02:20:54.799Z,19.77
2019-02-22T02:23:42.680Z,18.50
2019-02-22T02:26:30.596Z,18.83
2019-02-22T02:29:18.451Z,19.40
2019-02-22T02:32:06.128Z,19.23
2019-02-22T02:34:56.803Z,19.83
2019-02-22T02:37:44.638Z,19.60
2019-02-22T02:40:32.780Z,18.33
2019-02-22T02:43:20.666Z,18.77
2019-02-22T02:46:08.688Z,19.87
2019-02-22T02:48:56.770Z,18.80
2019-02-22T02:51:44.613Z,18.20
2019-02-22T02:54:32.661Z,18.90
2019-02-22T02:57:20.392Z,18.70
2019-02-22T03:00:09.200Z,18.43
2019-02-22T03:02:57.160Z,18.40
2019-02-22T03:05:58.154Z,19.53
2019-02-22T03:08:46.264Z,19.27
2019-02-22T03:11:34.490Z,17.87
2019-02-22T03:14:22.177Z,18.97
2019-02-22T03:17:09.935Z,19.07
2019-02-22T03:19:57.615Z,19.50
2019-02-22T03:22:45.669Z,19.70
2019-02-22T03:25:33.246Z,19.70
2019-02-22T03:28:20.894Z,21.10
2019-02-22T03:31:08.982Z,22.50
2019-02-22T03:33:56.690Z,21.57
2019-02-22T03:36:44.523Z,22.53
2019-02-22T03:39:32.492Z,22.43
2019-02-22T03:42:20.524Z,23.60
2019-02-22T03:45:08.886Z,25.40
2019-02-22T03:47:56.437Z,23.77
2019-02-22T03:50:44.094Z,23.63
2019-02-22T03:53:33.834Z,24.07
2019-02-22T03:56:22.174Z,22.40
2019-02-22T03:59:09.996Z,23.07
2019-02-22T04:01:57.607Z,23.13
2019-02-22T04:04:45.526Z,23.77
2019-02-22T04:07:33.188Z,24.27
2019-02-22T04:10:21.102Z,23.47
2019-02-22T04:13:08.979Z,23.43
2019-02-22T04:15:56.939Z,23.27
2019-02-22T04:18:44.993Z,24.30
2019-02-22T04:21:32.573Z,23.37
2019-02-22T04:24:20.429Z,23.10
2019-02-22T04:27:08.289Z,23.43
2019-02-22T04:29:56.162Z,23.80
2019-02-22T04:32:44.108Z,22.03
2019-02-22T04:35:31.685Z,24.93
2019-02-22T04:38:19.534Z,25.13
2019-02-22T04:41:07.182Z,23.20
2019-02-22T04:43:55.286Z,24.50
2019-02-22T04:46:42.999Z,23.53
2019-02-22T04:49:31.020Z,23.73
2019-02-22T04:52:18.654Z,24.40
2019-02-22T04:55:06.354Z,24.30
2019-02-22T04:57:54.186Z,24.77
2019-02-22T05:00:42.332Z,23.83
2019-02-22T05:03:30.150Z,23.40
2019-02-22T05:06:18.236Z,25.43
2019-02-22T05:09:06.148Z,24.97
2019-02-22T05:11:54.203Z,25.27
2019-02-22T05:14:42.044Z,27.47
2019-02-22T05:17:29.725Z,27.00
2019-02-22T05:20:17.693Z,28.17
2019-02-22T05:23:07.548Z,27.37
2019-02-22T05:25:55.692Z,27.37
2019-02-22T05:28:43.526Z,27.50
2019-02-22T05:31:31.333Z,29.70
2019-02-22T05:34:19.337Z,30.20
2019-02-22T05:37:07.161Z,31.30
2019-02-22T05:39:54.781Z,32.47
2019-02-22T05:42:42.772Z,32.13
2019-02-22T05:45:30.923Z,33.13
2019-02-22T05:48:18.784Z,31.87
2019-02-22T05:51:06.518Z,32.30
2019-02-22T05:53:54.297Z,33.00
2019-02-22T05:56:42.356Z,33.17
2019-02-22T05:59:30.273Z,34.23
2019-02-22T06:02:18.112Z,35.47
2019-02-22T06:05:06.525Z,37.73
2019-02-22T06:07:54.395Z,38.70
2019-02-22T06:10:42.067Z,37.57
2019-02-22T06:13:29.932Z,39.07
2019-02-22T06:16:17.942Z,38.23
2019-02-22T06:19:06.037Z,38.70
2019-02-22T06:21:53.879Z,38.67
2019-02-22T06:24:41.597Z,37.60
2019-02-22T06:27:29.534Z,38.27
2019-02-22T06:30:17.426Z,35.50
2019-02-22T06:33:05.313Z,35.73
2019-02-22T06:35:52.889Z,36.27
2019-02-22T06:38:40.833Z,35.80
2019-02-22T06:41:28.944Z,38.57
2019-02-22T06:44:16.634Z,35.17
2019-02-22T06:47:04.244Z,34.83
2019-02-22T06:49:52.237Z,35.93
2019-02-22T06:52:40.312Z,34.47
2019-02-22T06:55:28.201Z,34.70
2019-02-22T06:58:15.886Z,35.80
2019-02-22T07:01:03.856Z,36.00
2019-02-22T07:03:52.037Z,35.87
2019-02-22T07:06:39.919Z,36.20
2019-02-22T07:09:27.911Z,34.57
2019-02-22T07:12:17.482Z,34.47
2019-02-22T07:15:07.410Z,35.97
2019-02-22T07:17:55.156Z,34.90
2019-02-22T07:20:43.048Z,34.73
2019-02-22T07:23:30.705Z,35.30
2019-02-22T07:26:18.755Z,32.40
2019-02-22T07:29:06.808Z,34.40
2019-02-22T07:32:05.260Z,34.33
2019-02-22T07:34:44.716Z,33.30
2019-02-22T07:37:32.622Z,34.90
2019-02-22T07:40:20.673Z,33.00
2019-02-22T07:43:08.501Z,34.17
2019-02-22T07:45:57.809Z,32.77
2019-02-22T07:48:45.625Z,32.87
2019-02-22T07:51:33.497Z,32.53
2019-02-22T07:54:21.322Z,32.80
2019-02-22T07:57:09.355Z,33.13
2019-02-22T07:59:57.265Z,33.03
2019-02-22T08:02:45.264Z,33.20
2019-02-22T08:05:33.094Z,34.30
2019-02-22T08:08:20.969Z,34.20
2019-02-22T08:11:08.964Z,34.07
2019-02-22T08:13:56.992Z,33.87
2019-02-22T08:16:44.697Z,33.03
2019-02-22T08:19:32.384Z,32.37
2019-02-22T08:22:20.821Z,31.97
2019-02-22T08:25:08.921Z,32.77
2019-02-22T08:27:56.502Z,32.47
2019-02-22T08:30:44.145Z,31.57
2019-02-22T08:33:31.924Z,31.70
2019-02-22T08:36:19.784Z,31.70
2019-02-22T08:39:07.474Z,31.77
2019-02-22T08:41:55.216Z,31.87
2019-02-22T08:44:43.130Z,32.60
2019-02-22T08:47:31.098Z,30.77
2019-02-22T08:50:18.717Z,31.37
2019-02-22T08:53:06.489Z,30.60
2019-02-22T08:55:54.397Z,30.73
2019-02-22T08:58:42.245Z,30.97
2019-02-22T09:01:30.039Z,30.67
2019-02-22T09:04:17.942Z,28.93
2019-02-22T09:07:05.806Z,29.23
2019-02-22T09:09:53.568Z,29.20
2019-02-22T09:12:41.525Z,29.47
2019-02-22T09:15:29.262Z,28.93
2019-02-22T09:18:17.263Z,29.43
2019-02-22T09:21:05.265Z,29.07
2019-02-22T09:23:53.181Z,29.03
2019-02-22T09:26:40.867Z,29.43
2019-02-22T09:29:28.797Z,29.47
2019-02-22T09:32:16.643Z,28.70
2019-02-22T09:35:06.008Z,28.97
2019-02-22T09:37:53.924Z,29.23
2019-02-22T09:40:41.906Z,28.90
2019-02-22T09:43:30.100Z,29.33
2019-02-22T09:46:17.761Z,29.50
2019-02-22T09:49:05.442Z,28.87
2019-02-22T09:51:53.083Z,27.20
2019-02-22T09:54:41.173Z,28.07
2019-02-22T09:57:28.784Z,27.53
2019-02-22T10:00:16.665Z,30.00
2019-02-22T10:03:04.573Z,28.37
2019-02-22T10:05:52.675Z,28.47
2019-02-22T10:08:40.472Z,28.03
2019-02-22T10:11:28.113Z,26.17
2019-02-22T10:14:15.833Z,26.43
2019-02-22T10:17:03.885Z,24.60
2019-02-22T10:19:51.793Z,20.67
2019-02-22T10:22:39.410Z,18.90
2019-02-22T10:25:27.592Z,16.10
2019-02-22T10:28:18.129Z,13.80
2019-02-22T10:31:05.053Z,13.07
2019-02-22T10:33:52.955Z,13.43
2019-02-22T10:36:45.051Z,13.23
2019-02-22T10:39:30.930Z,13.90
2019-02-22T10:42:18.950Z,13.13
2019-02-22T10:45:09.101Z,9.20
2019-02-22T10:47:56.721Z,10.73
2019-02-22T10:50:44.602Z,11.37
2019-02-22T10:53:32.274Z,10.80
2019-02-22T10:56:20.221Z,10.37
2019-02-22T10:59:07.914Z,11.00
2019-02-22T11:01:55.884Z,10.00
2019-02-22T11:04:43.884Z,10.90
2019-02-22T11:07:31.405Z,9.07
2019-02-22T11:10:19.114Z,8.63
2019-02-22T11:13:06.977Z,7.60
2019-02-22T11:15:54.857Z,6.93
2019-02-22T11:18:42.484Z,7.50
2019-02-22T11:21:30.045Z,7.23
2019-02-22T11:24:19.914Z,7.37
2019-02-22T11:27:07.297Z,7.37
2019-02-22T11:29:54.867Z,6.57
2019-02-22T11:32:42.850Z,7.70
2019-02-22T11:35:30.681Z,8.20
2019-02-22T11:38:18.390Z,7.47
2019-02-22T11:41:05.982Z,7.30
2019-02-22T11:43:53.983Z,7.97
2019-02-22T11:46:41.844Z,8.17
2019-02-22T11:49:29.885Z,9.37
2019-02-22T11:52:17.764Z,9.03
2019-02-22T11:55:09.685Z,7.90
2019-02-22T11:57:57.328Z,7.33
2019-02-22T12:00:45.420Z,6.57
2019-02-22T12:03:33.057Z,7.13
2019-02-22T12:06:21.085Z,6.67
2019-02-22T12:09:08.980Z,6.40
2019-02-22T12:11:56.847Z,6.20
2019-02-22T12:14:51.605Z,6.80
2019-02-22T12:17:33.760Z,6.77
2019-02-22T12:20:21.389Z,6.50
2019-02-22T12:23:09.397Z,7.10
2019-02-22T12:25:56.975Z,6.30
2019-02-22T12:28:44.901Z,6.60
2019-02-22T12:31:32.662Z,6.30
2019-02-22T12:34:20.849Z,5.83
2019-02-22T12:37:08.634Z,5.20
2019-02-22T12:39:56.377Z,4.87
2019-02-22T12:42:44.148Z,4.77
2019-02-22T12:45:31.945Z,4.40
2019-02-22T12:48:19.511Z,4.10
2019-02-22T12:51:07.348Z,4.63
2019-02-22T12:53:55.236Z,5.03
2019-02-22T12:56:56.546Z,4.43
2019-02-22T12:59:32.600Z,4.80
2019-02-22T13:02:20.501Z,4.63
2019-02-22T13:05:10.604Z,3.83
2019-02-22T13:07:58.170Z,4.30
2019-02-22T13:10:46.067Z,3.80
2019-02-22T13:13:34.064Z,3.90
2019-02-22T13:16:21.952Z,4.33
2019-02-22T13:19:09.877Z,4.00
2019-02-22T13:21:57.916Z,4.80
2019-02-22T13:24:45.642Z,4.67
2019-02-22T13:27:33.515Z,5.20
2019-02-22T13:30:21.397Z,5.10
2019-02-22T13:33:09.445Z,5.53
2019-02-22T13:35:57.100Z,5.47
2019-02-22T13:38:45.025Z,6.73
2019-02-22T13:41:32.793Z,6.50
2019-02-22T13:44:20.783Z,5.73
2019-02-22T13:47:08.633Z,5.27
2019-02-22T13:49:56.542Z,6.10
2019-02-22T13:52:44.442Z,6.20
2019-02-22T13:55:32.446Z,6.87
2019-02-22T13:58:20.167Z,6.20
2019-02-22T14:01:08.023Z,5.70
2019-02-22T14:03:55.989Z,5.50
2019-02-22T14:06:43.818Z,5.77
2019-02-22T14:09:31.699Z,5.67
2019-02-22T14:12:19.497Z,5.47
2019-02-22T14:15:08.239Z,5.57
2019-02-22T14:17:56.203Z,5.53
2019-02-22T14:20:44.119Z,6.03
2019-02-22T14:23:32.161Z,5.97
2019-02-22T14:26:19.832Z,5.57
2019-02-22T14:29:07.794Z,6.00
2019-02-22T14:31:55.467Z,5.93
2019-02-22T14:34:43.160Z,5.73
2019-02-22T14:37:30.893Z,6.27
2019-02-22T14:40:18.506Z,5.90
2019-02-22T14:43:16.120Z,5.50
2019-02-22T14:45:55.848Z,6.33
2019-02-22T14:48:43.779Z,5.17
2019-02-22T14:51:31.556Z,5.60
2019-02-22T14:54:19.128Z,5.37
2019-02-22T14:57:07.137Z,5.70
2019-02-22T14:59:55.019Z,6.70
2019-02-22T15:02:42.536Z,5.00
2019-02-22T15:05:31.038Z,5.00
2019-02-22T15:08:18.973Z,4.70
2019-02-22T15:11:07.077Z,4.53
2019-02-22T15:13:55.126Z,4.40
2019-02-22T15:16:56.570Z,4.40
2019-02-22T15:19:44.946Z,4.27
2019-02-22T15:22:32.915Z,4.63
2019-02-22T15:25:20.868Z,4.60
2019-02-22T15:28:08.694Z,4.20
2019-02-22T15:30:56.591Z,5.03
2019-02-22T15:33:44.513Z,4.03
2019-02-22T15:36:32.137Z,4.20
2019-02-22T15:39:19.849Z,4.30
2019-02-22T15:42:07.594Z,3.97
2019-02-22T15:44:55.611Z,4.10
2019-02-22T15:47:44.693Z,3.83
2019-02-22T15:50:32.374Z,3.70
2019-02-22T15:53:20.309Z,3.70
2019-02-22T15:56:08.391Z,3.73
2019-02-22T15:58:56.241Z,4.17
2019-02-22T16:01:54.527Z,3.57
2019-02-22T16:04:42.110Z,3.70
2019-02-22T16:07:29.764Z,4.07
2019-02-22T16:10:17.523Z,3.93
2019-02-22T16:13:05.492Z,3.93
2019-02-22T16:15:53.157Z,3.73
2019-02-22T16:18:40.801Z,4.03
2019-02-22T16:21:28.709Z,3.47
2019-02-22T16:24:16.860Z,3.73
2019-02-22T16:27:04.918Z,3.97
2019-02-22T16:30:12.109Z,4.00
2019-02-22T16:33:17.628Z,3.70
2019-02-22T16:36:04.828Z,3.70
2019-02-22T16:38:52.289Z,3.57
2019-02-22T16:41:40.028Z,3.83
2019-02-22T16:44:27.487Z,4.03
2019-02-22T16:47:15.260Z,4.30
2019-02-22T16:50:02.980Z,3.90
2019-02-22T16:52:50.449Z,3.47
2019-02-22T16:55:38.054Z,3.67
2019-02-22T16:58:25.764Z,3.53
2019-02-22T17:01:13.312Z,4.27
2019-02-22T17:04:00.809Z,4.20
2019-02-22T17:06:48.525Z,4.20
2019-02-22T17:09:36.237Z,3.77
2019-02-22T17:12:23.833Z,4.40
2019-02-22T17:15:13.020Z,4.70
2019-02-22T17:18:01.253Z,4.80
2019-02-22T17:20:48.969Z,4.10
2019-02-22T17:23:36.705Z,4.87
2019-02-22T17:26:24.261Z,3.80
2019-02-22T17:29:11.602Z,3.73
2019-02-22T17:31:59.173Z,3.83
2019-02-22T17:34:46.662Z,4.03
2019-02-22T17:37:34.332Z,3.50
2019-02-22T17:40:23.912Z,3.63
2019-02-22T17:43:11.536Z,3.83
2019-02-22T17:45:58.945Z,4.00
2019-02-22T17:48:46.569Z,4.50
2019-02-22T17:51:34.008Z,4.20
2019-02-22T17:54:21.705Z,4.70
2019-02-22T17:57:09.065Z,4.70
2019-02-22T17:59:56.660Z,4.53
2019-02-22T18:02:44.041Z,5.53
2019-02-22T18:05:31.805Z,5.47
2019-02-22T18:08:19.180Z,5.90
2019-02-22T18:11:06.522Z,6.90
2019-02-22T18:13:54.268Z,7.83
2019-02-22T18:16:41.730Z,9.73
2019-02-22T18:19:29.077Z,10.43
2019-02-22T18:22:25.408Z,10.67
2019-02-22T18:25:08.234Z,13.80
2019-02-22T18:27:55.803Z,11.97
2019-02-22T18:30:43.477Z,14.63
2019-02-22T18:33:30.860Z,15.73
2019-02-22T18:36:18.492Z,14.77
2019-02-22T18:39:06.622Z,15.90
2019-02-22T18:41:54.033Z,15.47
2019-02-22T18:44:41.497Z,15.20
2019-02-22T18:47:29.078Z,14.27
2019-02-22T18:50:16.686Z,13.20
2019-02-22T18:53:04.302Z,12.27
2019-02-22T18:55:52.016Z,13.53
2019-02-22T18:58:39.632Z,12.50
2019-02-22T19:01:27.265Z,11.40
2019-02-22T19:04:14.918Z,12.30
2019-02-22T19:07:02.519Z,14.27
2019-02-22T19:09:50.177Z,22.23
2019-02-22T19:12:39.196Z,19.97
2019-02-22T19:15:26.757Z,16.70
2019-02-22T19:18:14.516Z,14.50
2019-02-22T19:21:01.853Z,13.10
2019-02-22T19:23:49.277Z,12.70
2019-02-22T19:26:36.918Z,12.00
2019-02-22T19:29:24.732Z,12.20
2019-02-22T19:32:12.370Z,18.43
2019-02-22T19:34:59.801Z,16.57
2019-02-22T19:37:47.537Z,17.57
2019-02-22T19:40:35.083Z,18.57
2019-02-22T19:43:22.753Z,18.40
2019-02-22T19:46:10.302Z,18.57
2019-02-22T19:48:58.053Z,19.57
2019-02-22T19:51:45.521Z,17.20
2019-02-22T19:54:33.137Z,15.03
2019-02-22T19:57:20.811Z,13.77
2019-02-22T20:00:14.636Z,13.23
2019-02-22T20:03:02.451Z,11.60
2019-02-22T20:05:49.952Z,12.33
2019-02-22T20:08:37.650Z,11.97
2019-02-22T20:11:25.296Z,12.00
2019-02-22T20:14:13.021Z,11.83
2019-02-22T20:17:00.577Z,13.47
2019-02-22T20:19:48.141Z,13.17
2019-02-22T20:22:35.661Z,13.27
2019-02-22T20:25:23.509Z,13.53
2019-02-22T20:28:10.964Z,13.50
2019-02-22T20:30:58.326Z,13.43
2019-02-22T20:33:46.064Z,14.30
2019-02-22T20:36:33.724Z,15.27
2019-02-22T20:39:21.333Z,13.67
2019-02-22T20:42:08.780Z,13.00
2019-02-22T20:44:56.345Z,14.70
2019-02-22T20:47:43.981Z,15.13
2019-02-22T20:50:31.345Z,14.23
2019-02-22T20:53:18.660Z,14.07
2019-02-22T20:56:06.495Z,13.90
2019-02-22T20:58:53.945Z,13.00
2019-02-22T21:01:41.340Z,12.00
2019-02-22T21:04:29.065Z,12.33
2019-02-22T21:07:16.498Z,13.03
2019-02-22T21:10:05.941Z,13.97
2019-02-22T21:12:53.312Z,19.60
2019-02-22T21:15:40.808Z,15.07
2019-02-22T21:18:28.205Z,17.10
2019-02-22T21:21:15.751Z,15.90
2019-02-22T21:24:03.131Z,14.97
2019-02-22T21:26:50.835Z,15.90
2019-02-22T21:29:39.221Z,15.37
2019-02-22T21:32:27.069Z,15.47
2019-02-22T21:35:14.772Z,14.87
2019-02-22T21:38:02.446Z,14.73
2019-02-22T21:40:49.928Z,12.93
2019-02-22T21:43:37.558Z,12.07
2019-02-22T21:46:24.976Z,13.23
2019-02-22T21:49:12.693Z,12.37
2019-02-22T21:52:00.240Z,12.97
2019-02-22T21:54:47.667Z,12.60
2019-02-22T21:57:35.124Z,14.53
2019-02-22T22:00:27.632Z,25.40
2019-02-22T22:03:15.245Z,28.63
2019-02-22T22:06:02.668Z,18.13
2019-02-22T22:08:50.375Z,16.97
2019-02-22T22:11:38.120Z,16.63
2019-02-22T22:14:25.502Z,14.50
2019-02-22T22:17:12.853Z,13.97
2019-02-22T22:20:00.343Z,12.77
2019-02-22T22:22:47.945Z,14.37
2019-02-22T22:25:35.564Z,13.90
2019-02-22T22:28:24.511Z,15.03
2019-02-22T22:31:11.867Z,13.90
2019-02-22T22:33:59.440Z,14.30
2019-02-22T22:36:46.891Z,14.00
2019-02-22T22:39:34.692Z,13.10
2019-02-22T22:42:22.420Z,14.73
2019-02-22T22:45:11.585Z,15.07
2019-02-22T22:47:58.940Z,14.17
2019-02-22T22:50:46.653Z,14.33
2019-02-22T22:53:34.433Z,14.13
2019-02-22T22:56:22.032Z,14.60
2019-02-22T22:59:09.689Z,14.03
2019-02-22T23:01:57.085Z,14.90
2019-02-22T23:04:44.628Z,14.00
2019-02-22T23:07:32.165Z,13.67
2019-02-22T23:10:19.937Z,14.33
2019-02-22T23:13:07.737Z,16.07
2019-02-22T23:15:55.416Z,14.90
2019-02-22T23:18:42.724Z,13.77
2019-02-22T23:21:30.356Z,14.43
2019-02-22T23:24:17.873Z,13.07
2019-02-22T23:27:05.315Z,14.53
2019-02-22T23:29:52.933Z,13.03
2019-02-22T23:32:40.308Z,14.43
2019-02-22T23:35:28.007Z,14.47
2019-02-22T23:38:15.503Z,14.07
2019-02-22T23:41:02.861Z,14.73
2019-02-22T23:43:50.551Z,13.33
2019-02-22T23:46:37.897Z,13.60
2019-02-22T23:49:25.349Z,14.03
2019-02-22T23:52:13.060Z,28.20
2019-02-22T23:55:00.521Z,16.80
2019-02-22T23:57:47.872Z,13.83
